sensor_id;sensor_type;location;lat;lon;timestamp;P1;durP1;ratioP1;P2;durP2;ratioP2
485;SDS011;229;48.734;9.340;2024-02-15T00:01:38;5.00;;;2.30;;
485;SDS011;229;48.734;9.340;2024-02-15T00:04:06;2.20;;;1.85;;
485;SDS011;229;48.734;9.340;2024-02-15T00:06:33;7.15;;;2.60;;
485;SDS011;229;48.734;9.340;2024-02-15T00:09:00;4.25;;;2.10;;
485;SDS011;229;48.734;9.340;2024-02-15T00:11:28;3.38;;;2.40;;
485;SDS011;229;48.734;9.340;2024-02-15T00:13:55;8.77;;;2.38;;
485;SDS011;229;48.734;9.340;2024-02-15T00:16:24;5.70;;;2.17;;
485;SDS011;229;48.734;9.340;2024-02-15T00:18:52;5.90;;;2.15;;
485;SDS011;229;48.734;9.340;2024-02-15T00:21:20;3.15;;;2.00;;
485;SDS011;229;48.734;9.340;2024-02-15T00:23:48;4.13;;;1.67;;
485;SDS011;229;48.734;9.340;2024-02-15T00:26:15;5.22;;;2.15;;
485;SDS011;229;48.734;9.340;2024-02-15T00:28:42;4.50;;;1.95;;
485;SDS011;229;48.734;9.340;2024-02-15T00:31:09;2.22;;;1.60;;
485;SDS011;229;48.734;9.340;2024-02-15T00:33:38;3.35;;;1.92;;
485;SDS011;229;48.734;9.340;2024-02-15T00:36:05;5.88;;;2.00;;
485;SDS011;229;48.734;9.340;2024-02-15T00:38:33;3.60;;;2.00;;
485;SDS011;229;48.734;9.340;2024-02-15T00:41:00;5.63;;;2.60;;
485;SDS011;229;48.734;9.340;2024-02-15T00:43:27;4.20;;;1.90;;
485;SDS011;229;48.734;9.340;2024-02-15T00:45:55;4.95;;;2.40;;
485;SDS011;229;48.734;9.340;2024-02-15T00:48:22;4.35;;;2.30;;
485;SDS011;229;48.734;9.340;2024-02-15T00:50:52;6.75;;;2.30;;
485;SDS011;229;48.734;9.340;2024-02-15T00:53:19;4.85;;;2.72;;
485;SDS011;229;48.734;9.340;2024-02-15T00:55:47;6.35;;;2.40;;
485;SDS011;229;48.734;9.340;2024-02-15T00:58:14;6.55;;;2.72;;
485;SDS011;229;48.734;9.340;2024-02-15T01:00:41;8.73;;;3.83;;
485;SDS011;229;48.734;9.340;2024-02-15T01:03:08;5.95;;;2.72;;
485;SDS011;229;48.734;9.340;2024-02-15T01:05:35;4.43;;;2.40;;
485;SDS011;229;48.734;9.340;2024-02-15T01:08:04;4.35;;;2.60;;
485;SDS011;229;48.734;9.340;2024-02-15T01:10:31;4.28;;;2.22;;
485;SDS011;229;48.734;9.340;2024-02-15T01:12:58;3.35;;;2.17;;
485;SDS011;229;48.734;9.340;2024-02-15T01:15:26;4.03;;;1.98;;
485;SDS011;229;48.734;9.340;2024-02-15T01:17:53;6.82;;;2.80;;
485;SDS011;229;48.734;9.340;2024-02-15T01:20:20;6.75;;;3.33;;
485;SDS011;229;48.734;9.340;2024-02-15T01:22:47;4.03;;;2.28;;
485;SDS011;229;48.734;9.340;2024-02-15T01:25:16;4.85;;;2.00;;
485;SDS011;229;48.734;9.340;2024-02-15T01:27:43;4.20;;;1.98;;
485;SDS011;229;48.734;9.340;2024-02-15T01:30:11;4.97;;;2.45;;
485;SDS011;229;48.734;9.340;2024-02-15T01:32:38;3.90;;;2.38;;
485;SDS011;229;48.734;9.340;2024-02-15T01:35:07;6.18;;;2.97;;
485;SDS011;229;48.734;9.340;2024-02-15T01:37:35;3.03;;;2.10;;
485;SDS011;229;48.734;9.340;2024-02-15T01:40:03;4.00;;;2.25;;
485;SDS011;229;48.734;9.340;2024-02-15T01:42:33;3.92;;;2.20;;
485;SDS011;229;48.734;9.340;2024-02-15T01:45:01;7.18;;;2.33;;
485;SDS011;229;48.734;9.340;2024-02-15T01:47:29;7.00;;;2.40;;
485;SDS011;229;48.734;9.340;2024-02-15T01:49:57;3.33;;;1.80;;
485;SDS011;229;48.734;9.340;2024-02-15T01:52:24;5.03;;;1.88;;
485;SDS011;229;48.734;9.340;2024-02-15T01:54:51;2.95;;;1.90;;
485;SDS011;229;48.734;9.340;2024-02-15T01:57:19;4.78;;;2.30;;
485;SDS011;229;48.734;9.340;2024-02-15T01:59:49;5.25;;;1.65;;
485;SDS011;229;48.734;9.340;2024-02-15T02:02:17;3.60;;;1.80;;
485;SDS011;229;48.734;9.340;2024-02-15T02:04:45;4.47;;;2.08;;
485;SDS011;229;48.734;9.340;2024-02-15T02:07:12;3.00;;;2.10;;
485;SDS011;229;48.734;9.340;2024-02-15T02:09:40;4.07;;;2.00;;
485;SDS011;229;48.734;9.340;2024-02-15T02:12:08;4.60;;;2.40;;
485;SDS011;229;48.734;9.340;2024-02-15T02:14:35;5.30;;;2.03;;
485;SDS011;229;48.734;9.340;2024-02-15T02:17:13;6.32;;;2.05;;
485;SDS011;229;48.734;9.340;2024-02-15T02:19:41;3.47;;;1.92;;
485;SDS011;229;48.734;9.340;2024-02-15T02:22:09;3.22;;;2.15;;
485;SDS011;229;48.734;9.340;2024-02-15T02:24:40;3.92;;;2.25;;
485;SDS011;229;48.734;9.340;2024-02-15T02:27:08;2.42;;;2.17;;
485;SDS011;229;48.734;9.340;2024-02-15T02:29:37;9.10;;;1.85;;
485;SDS011;229;48.734;9.340;2024-02-15T02:32:10;6.68;;;2.00;;
485;SDS011;229;48.734;9.340;2024-02-15T02:34:37;8.43;;;2.10;;
485;SDS011;229;48.734;9.340;2024-02-15T02:37:06;3.58;;;1.70;;
485;SDS011;229;48.734;9.340;2024-02-15T02:39:33;3.08;;;2.10;;
485;SDS011;229;48.734;9.340;2024-02-15T02:42:01;3.00;;;1.98;;
485;SDS011;229;48.734;9.340;2024-02-15T02:44:29;4.80;;;2.20;;
485;SDS011;229;48.734;9.340;2024-02-15T02:46:56;3.78;;;2.00;;
485;SDS011;229;48.734;9.340;2024-02-15T02:49:23;3.85;;;2.30;;
485;SDS011;229;48.734;9.340;2024-02-15T02:51:51;5.13;;;1.80;;
485;SDS011;229;48.734;9.340;2024-02-15T02:54:18;5.90;;;1.80;;
485;SDS011;229;48.734;9.340;2024-02-15T02:56:46;5.18;;;2.10;;
485;SDS011;229;48.734;9.340;2024-02-15T02:59:13;3.75;;;1.60;;
485;SDS011;229;48.734;9.340;2024-02-15T03:01:42;4.22;;;2.15;;
485;SDS011;229;48.734;9.340;2024-02-15T03:04:10;4.75;;;2.25;;
485;SDS011;229;48.734;9.340;2024-02-15T03:06:42;4.20;;;1.85;;
485;SDS011;229;48.734;9.340;2024-02-15T03:09:09;3.88;;;2.00;;
485;SDS011;229;48.734;9.340;2024-02-15T03:11:38;4.80;;;2.30;;
485;SDS011;229;48.734;9.340;2024-02-15T03:14:06;3.00;;;1.90;;
485;SDS011;229;48.734;9.340;2024-02-15T03:16:33;3.35;;;1.60;;
485;SDS011;229;48.734;9.340;2024-02-15T03:19:01;3.58;;;1.70;;
485;SDS011;229;48.734;9.340;2024-02-15T03:21:29;3.42;;;2.03;;
485;SDS011;229;48.734;9.340;2024-02-15T03:23:56;2.30;;;1.70;;
485;SDS011;229;48.734;9.340;2024-02-15T03:26:29;6.78;;;1.80;;
485;SDS011;229;48.734;9.340;2024-02-15T03:28:58;3.60;;;1.55;;
485;SDS011;229;48.734;9.340;2024-02-15T03:31:28;4.82;;;1.80;;
485;SDS011;229;48.734;9.340;2024-02-15T03:33:56;4.07;;;1.90;;
485;SDS011;229;48.734;9.340;2024-02-15T03:36:25;2.35;;;1.70;;
485;SDS011;229;48.734;9.340;2024-02-15T03:38:54;3.47;;;1.88;;
485;SDS011;229;48.734;9.340;2024-02-15T03:41:21;2.25;;;1.58;;
485;SDS011;229;48.734;9.340;2024-02-15T03:43:48;3.47;;;2.05;;
485;SDS011;229;48.734;9.340;2024-02-15T03:46:15;7.57;;;2.20;;
485;SDS011;229;48.734;9.340;2024-02-15T03:48:43;5.05;;;1.80;;
485;SDS011;229;48.734;9.340;2024-02-15T03:51:10;4.25;;;1.73;;
485;SDS011;229;48.734;9.340;2024-02-15T03:53:41;3.05;;;1.90;;
485;SDS011;229;48.734;9.340;2024-02-15T03:56:08;5.30;;;2.58;;
485;SDS011;229;48.734;9.340;2024-02-15T03:58:35;3.65;;;2.00;;
485;SDS011;229;48.734;9.340;2024-02-15T04:01:02;5.97;;;2.00;;
485;SDS011;229;48.734;9.340;2024-02-15T04:03:31;3.67;;;2.10;;
485;SDS011;229;48.734;9.340;2024-02-15T04:05:59;2.70;;;1.60;;
485;SDS011;229;48.734;9.340;2024-02-15T04:08:26;3.75;;;2.05;;
485;SDS011;229;48.734;9.340;2024-02-15T04:10:55;6.95;;;2.35;;
485;SDS011;229;48.734;9.340;2024-02-15T04:13:22;3.30;;;1.90;;
485;SDS011;229;48.734;9.340;2024-02-15T04:15:50;2.95;;;2.03;;
485;SDS011;229;48.734;9.340;2024-02-15T04:18:18;10.95;;;2.22;;
485;SDS011;229;48.734;9.340;2024-02-15T04:20:45;4.95;;;2.08;;
485;SDS011;229;48.734;9.340;2024-02-15T04:23:13;3.65;;;2.42;;
485;SDS011;229;48.734;9.340;2024-02-15T04:25:41;5.13;;;2.20;;
485;SDS011;229;48.734;9.340;2024-02-15T04:28:10;5.63;;;2.83;;
485;SDS011;229;48.734;9.340;2024-02-15T04:30:37;3.38;;;1.85;;
485;SDS011;229;48.734;9.340;2024-02-15T04:33:05;3.90;;;2.33;;
485;SDS011;229;48.734;9.340;2024-02-15T04:35:33;5.22;;;2.25;;
485;SDS011;229;48.734;9.340;2024-02-15T04:38:00;4.60;;;2.10;;
485;SDS011;229;48.734;9.340;2024-02-15T04:40:28;4.57;;;2.35;;
485;SDS011;229;48.734;9.340;2024-02-15T04:42:57;4.28;;;2.30;;
485;SDS011;229;48.734;9.340;2024-02-15T04:45:25;6.00;;;2.42;;
485;SDS011;229;48.734;9.340;2024-02-15T04:47:52;3.10;;;2.15;;
485;SDS011;229;48.734;9.340;2024-02-15T04:50:22;5.53;;;2.60;;
485;SDS011;229;48.734;9.340;2024-02-15T04:52:50;3.30;;;2.22;;
485;SDS011;229;48.734;9.340;2024-02-15T04:55:18;5.72;;;2.25;;
485;SDS011;229;48.734;9.340;2024-02-15T04:57:47;3.95;;;2.00;;
485;SDS011;229;48.734;9.340;2024-02-15T05:00:19;2.97;;;1.90;;
485;SDS011;229;48.734;9.340;2024-02-15T05:02:49;6.38;;;1.98;;
485;SDS011;229;48.734;9.340;2024-02-15T05:05:16;5.25;;;2.08;;
485;SDS011;229;48.734;9.340;2024-02-15T05:07:43;10.73;;;2.40;;
485;SDS011;229;48.734;9.340;2024-02-15T05:10:10;6.90;;;3.30;;
485;SDS011;229;48.734;9.340;2024-02-15T05:12:38;4.18;;;2.30;;
485;SDS011;229;48.734;9.340;2024-02-15T05:15:05;5.15;;;2.42;;
485;SDS011;229;48.734;9.340;2024-02-15T05:17:35;4.88;;;2.22;;
485;SDS011;229;48.734;9.340;2024-02-15T05:20:04;7.25;;;3.10;;
485;SDS011;229;48.734;9.340;2024-02-15T05:22:36;5.90;;;3.10;;
485;SDS011;229;48.734;9.340;2024-02-15T05:25:04;4.25;;;2.25;;
485;SDS011;229;48.734;9.340;2024-02-15T05:27:32;5.53;;;2.80;;
485;SDS011;229;48.734;9.340;2024-02-15T05:30:01;4.53;;;3.00;;
485;SDS011;229;48.734;9.340;2024-02-15T05:32:31;5.55;;;2.92;;
485;SDS011;229;48.734;9.340;2024-02-15T05:34:58;5.65;;;2.60;;
485;SDS011;229;48.734;9.340;2024-02-15T05:37:28;6.15;;;2.85;;
485;SDS011;229;48.734;9.340;2024-02-15T05:39:55;6.82;;;3.30;;
485;SDS011;229;48.734;9.340;2024-02-15T05:42:22;3.58;;;2.30;;
485;SDS011;229;48.734;9.340;2024-02-15T05:44:50;5.32;;;3.08;;
485;SDS011;229;48.734;9.340;2024-02-15T05:47:17;4.78;;;3.00;;
485;SDS011;229;48.734;9.340;2024-02-15T05:49:45;4.65;;;3.17;;
485;SDS011;229;48.734;9.340;2024-02-15T05:52:12;6.07;;;2.97;;
485;SDS011;229;48.734;9.340;2024-02-15T05:54:41;8.13;;;3.25;;
485;SDS011;229;48.734;9.340;2024-02-15T05:57:08;6.40;;;2.85;;
485;SDS011;229;48.734;9.340;2024-02-15T05:59:36;5.60;;;2.85;;
485;SDS011;229;48.734;9.340;2024-02-15T06:02:05;3.67;;;2.55;;
485;SDS011;229;48.734;9.340;2024-02-15T06:04:33;5.72;;;2.40;;
485;SDS011;229;48.734;9.340;2024-02-15T06:07:00;4.45;;;2.35;;
485;SDS011;229;48.734;9.340;2024-02-15T06:09:28;4.60;;;2.42;;
485;SDS011;229;48.734;9.340;2024-02-15T06:11:59;6.47;;;3.08;;
485;SDS011;229;48.734;9.340;2024-02-15T06:14:26;5.93;;;3.17;;
485;SDS011;229;48.734;9.340;2024-02-15T06:16:53;5.18;;;3.00;;
485;SDS011;229;48.734;9.340;2024-02-15T06:19:23;4.00;;;2.33;;
485;SDS011;229;48.734;9.340;2024-02-15T06:21:50;4.35;;;2.53;;
485;SDS011;229;48.734;9.340;2024-02-15T06:24:17;3.30;;;2.53;;
485;SDS011;229;48.734;9.340;2024-02-15T06:26:44;5.95;;;2.35;;
485;SDS011;229;48.734;9.340;2024-02-15T06:29:15;3.80;;;2.80;;
485;SDS011;229;48.734;9.340;2024-02-15T06:32:00;4.47;;;2.80;;
485;SDS011;229;48.734;9.340;2024-02-15T06:34:44;3.70;;;2.85;;
485;SDS011;229;48.734;9.340;2024-02-15T06:37:36;3.58;;;2.28;;
485;SDS011;229;48.734;9.340;2024-02-15T06:40:24;3.80;;;2.70;;
485;SDS011;229;48.734;9.340;2024-02-15T06:42:51;3.90;;;2.53;;
485;SDS011;229;48.734;9.340;2024-02-15T06:45:19;6.25;;;3.30;;
485;SDS011;229;48.734;9.340;2024-02-15T06:47:48;6.55;;;2.78;;
485;SDS011;229;48.734;9.340;2024-02-15T06:50:15;6.20;;;2.63;;
485;SDS011;229;48.734;9.340;2024-02-15T06:52:42;6.32;;;3.13;;
485;SDS011;229;48.734;9.340;2024-02-15T06:55:10;4.13;;;2.90;;
485;SDS011;229;48.734;9.340;2024-02-15T06:57:39;5.82;;;2.97;;
485;SDS011;229;48.734;9.340;2024-02-15T07:00:07;5.03;;;3.80;;
485;SDS011;229;48.734;9.340;2024-02-15T07:02:41;8.95;;;5.03;;
485;SDS011;229;48.734;9.340;2024-02-15T07:05:09;10.55;;;4.65;;
485;SDS011;229;48.734;9.340;2024-02-15T07:07:36;14.52;;;7.70;;
485;SDS011;229;48.734;9.340;2024-02-15T07:10:08;14.35;;;7.63;;
485;SDS011;229;48.734;9.340;2024-02-15T07:12:35;12.85;;;7.65;;
485;SDS011;229;48.734;9.340;2024-02-15T07:15:03;10.73;;;7.22;;
485;SDS011;229;48.734;9.340;2024-02-15T07:17:31;8.52;;;6.47;;
485;SDS011;229;48.734;9.340;2024-02-15T07:20:00;10.70;;;7.75;;
485;SDS011;229;48.734;9.340;2024-02-15T07:22:30;9.82;;;6.10;;
485;SDS011;229;48.734;9.340;2024-02-15T07:24:57;12.18;;;7.53;;
485;SDS011;229;48.734;9.340;2024-02-15T07:27:25;15.95;;;10.50;;
485;SDS011;229;48.734;9.340;2024-02-15T07:29:52;9.90;;;7.15;;
485;SDS011;229;48.734;9.340;2024-02-15T07:32:21;12.10;;;6.05;;
485;SDS011;229;48.734;9.340;2024-02-15T07:34:48;8.32;;;6.38;;
485;SDS011;229;48.734;9.340;2024-02-15T07:37:16;9.43;;;6.10;;
485;SDS011;229;48.734;9.340;2024-02-15T07:39:43;10.05;;;6.45;;
485;SDS011;229;48.734;9.340;2024-02-15T07:42:10;9.48;;;6.18;;
485;SDS011;229;48.734;9.340;2024-02-15T07:44:38;10.60;;;4.70;;
485;SDS011;229;48.734;9.340;2024-02-15T07:47:05;7.20;;;4.60;;
485;SDS011;229;48.734;9.340;2024-02-15T07:49:32;5.90;;;3.95;;
485;SDS011;229;48.734;9.340;2024-02-15T07:51:59;6.65;;;4.20;;
485;SDS011;229;48.734;9.340;2024-02-15T07:54:28;6.30;;;3.88;;
485;SDS011;229;48.734;9.340;2024-02-15T07:56:56;5.35;;;3.50;;
485;SDS011;229;48.734;9.340;2024-02-15T07:59:23;5.30;;;3.65;;
485;SDS011;229;48.734;9.340;2024-02-15T08:01:50;4.05;;;3.10;;
485;SDS011;229;48.734;9.340;2024-02-15T08:04:18;5.90;;;3.40;;
485;SDS011;229;48.734;9.340;2024-02-15T08:06:45;7.45;;;3.38;;
485;SDS011;229;48.734;9.340;2024-02-15T08:09:15;9.60;;;3.75;;
485;SDS011;229;48.734;9.340;2024-02-15T08:11:44;5.57;;;4.35;;
485;SDS011;229;48.734;9.340;2024-02-15T08:14:11;10.65;;;5.22;;
485;SDS011;229;48.734;9.340;2024-02-15T08:16:38;6.38;;;4.30;;
485;SDS011;229;48.734;9.340;2024-02-15T08:19:06;8.10;;;4.15;;
485;SDS011;229;48.734;9.340;2024-02-15T08:21:33;6.35;;;4.22;;
485;SDS011;229;48.734;9.340;2024-02-15T08:24:02;7.80;;;3.90;;
485;SDS011;229;48.734;9.340;2024-02-15T08:26:30;4.70;;;3.70;;
485;SDS011;229;48.734;9.340;2024-02-15T08:28:59;6.82;;;3.63;;
485;SDS011;229;48.734;9.340;2024-02-15T08:31:28;8.48;;;3.55;;
485;SDS011;229;48.734;9.340;2024-02-15T08:33:55;5.55;;;3.60;;
485;SDS011;229;48.734;9.340;2024-02-15T08:36:22;6.15;;;3.50;;
485;SDS011;229;48.734;9.340;2024-02-15T08:38:50;11.05;;;3.90;;
485;SDS011;229;48.734;9.340;2024-02-15T08:41:17;5.88;;;3.60;;
485;SDS011;229;48.734;9.340;2024-02-15T08:43:47;7.95;;;3.97;;
485;SDS011;229;48.734;9.340;2024-02-15T08:46:15;8.75;;;3.80;;
485;SDS011;229;48.734;9.340;2024-02-15T08:48:43;7.25;;;4.05;;
485;SDS011;229;48.734;9.340;2024-02-15T08:51:11;6.65;;;3.53;;
485;SDS011;229;48.734;9.340;2024-02-15T08:53:38;6.70;;;3.28;;
485;SDS011;229;48.734;9.340;2024-02-15T08:56:06;10.05;;;3.97;;
485;SDS011;229;48.734;9.340;2024-02-15T08:58:35;5.90;;;3.78;;
485;SDS011;229;48.734;9.340;2024-02-15T09:01:03;7.88;;;4.20;;
485;SDS011;229;48.734;9.340;2024-02-15T09:03:33;5.03;;;2.88;;
485;SDS011;229;48.734;9.340;2024-02-15T09:06:01;7.72;;;3.40;;
485;SDS011;229;48.734;9.340;2024-02-15T09:08:29;6.97;;;3.78;;
485;SDS011;229;48.734;9.340;2024-02-15T09:10:57;6.68;;;4.13;;
485;SDS011;229;48.734;9.340;2024-02-15T09:13:24;6.38;;;3.75;;
485;SDS011;229;48.734;9.340;2024-02-15T09:15:51;9.82;;;4.35;;
485;SDS011;229;48.734;9.340;2024-02-15T09:18:20;5.20;;;3.58;;
485;SDS011;229;48.734;9.340;2024-02-15T09:20:49;4.75;;;3.60;;
485;SDS011;229;48.734;9.340;2024-02-15T09:23:20;7.28;;;4.30;;
485;SDS011;229;48.734;9.340;2024-02-15T09:25:48;7.38;;;3.72;;
485;SDS011;229;48.734;9.340;2024-02-15T09:28:16;7.47;;;4.15;;
485;SDS011;229;48.734;9.340;2024-02-15T09:30:47;13.82;;;4.32;;
485;SDS011;229;48.734;9.340;2024-02-15T09:33:16;6.50;;;4.00;;
485;SDS011;229;48.734;9.340;2024-02-15T09:35:43;6.83;;;4.20;;
485;SDS011;229;48.734;9.340;2024-02-15T09:38:12;15.10;;;4.33;;
485;SDS011;229;48.734;9.340;2024-02-15T09:40:41;8.13;;;3.93;;
485;SDS011;229;48.734;9.340;2024-02-15T09:43:09;6.83;;;3.83;;
485;SDS011;229;48.734;9.340;2024-02-15T09:45:38;5.47;;;3.70;;
485;SDS011;229;48.734;9.340;2024-02-15T09:48:05;6.20;;;3.50;;
485;SDS011;229;48.734;9.340;2024-02-15T09:50:34;6.70;;;3.90;;
485;SDS011;229;48.734;9.340;2024-02-15T09:53:01;6.90;;;3.80;;
485;SDS011;229;48.734;9.340;2024-02-15T09:55:32;6.63;;;3.60;;
485;SDS011;229;48.734;9.340;2024-02-15T09:58:00;5.30;;;3.43;;
485;SDS011;229;48.734;9.340;2024-02-15T10:00:29;8.20;;;4.20;;
485;SDS011;229;48.734;9.340;2024-02-15T10:02:57;6.10;;;3.80;;
485;SDS011;229;48.734;9.340;2024-02-15T10:05:26;7.00;;;3.80;;
485;SDS011;229;48.734;9.340;2024-02-15T10:07:53;6.30;;;3.20;;
485;SDS011;229;48.734;9.340;2024-02-15T10:10:21;9.20;;;3.60;;
485;SDS011;229;48.734;9.340;2024-02-15T10:12:50;13.90;;;3.90;;
485;SDS011;229;48.734;9.340;2024-02-15T10:15:28;7.13;;;3.60;;
485;SDS011;229;48.734;9.340;2024-02-15T10:17:56;5.20;;;3.20;;
485;SDS011;229;48.734;9.340;2024-02-15T10:20:23;4.97;;;3.30;;
485;SDS011;229;48.734;9.340;2024-02-15T10:22:51;6.67;;;3.30;;
485;SDS011;229;48.734;9.340;2024-02-15T10:25:20;8.90;;;4.80;;
485;SDS011;229;48.734;9.340;2024-02-15T10:27:50;8.00;;;3.40;;
485;SDS011;229;48.734;9.340;2024-02-15T10:30:17;5.17;;;3.07;;
485;SDS011;229;48.734;9.340;2024-02-15T10:32:45;3.53;;;2.87;;
485;SDS011;229;48.734;9.340;2024-02-15T10:35:22;7.70;;;2.60;;
485;SDS011;229;48.734;9.340;2024-02-15T10:37:49;3.80;;;2.60;;
485;SDS011;229;48.734;9.340;2024-02-15T10:40:18;9.30;;;2.63;;
485;SDS011;229;48.734;9.340;2024-02-15T10:42:45;7.10;;;3.13;;
485;SDS011;229;48.734;9.340;2024-02-15T10:45:16;5.07;;;2.60;;
485;SDS011;229;48.734;9.340;2024-02-15T10:47:44;4.13;;;2.20;;
485;SDS011;229;48.734;9.340;2024-02-15T10:50:12;4.17;;;2.20;;
485;SDS011;229;48.734;9.340;2024-02-15T10:52:41;3.80;;;1.93;;
485;SDS011;229;48.734;9.340;2024-02-15T10:55:11;7.97;;;2.90;;
485;SDS011;229;48.734;9.340;2024-02-15T10:57:39;4.53;;;2.20;;
485;SDS011;229;48.734;9.340;2024-02-15T11:00:12;5.63;;;2.20;;
485;SDS011;229;48.734;9.340;2024-02-15T11:02:49;6.53;;;2.43;;
485;SDS011;229;48.734;9.340;2024-02-15T11:05:19;7.57;;;3.07;;
485;SDS011;229;48.734;9.340;2024-02-15T11:07:48;3.73;;;2.00;;
485;SDS011;229;48.734;9.340;2024-02-15T11:10:16;5.80;;;1.83;;
485;SDS011;229;48.734;9.340;2024-02-15T11:12:43;4.93;;;1.83;;
485;SDS011;229;48.734;9.340;2024-02-15T11:15:12;4.23;;;1.77;;
485;SDS011;229;48.734;9.340;2024-02-15T11:18:01;5.77;;;2.03;;
485;SDS011;229;48.734;9.340;2024-02-15T11:20:45;4.50;;;2.10;;
485;SDS011;229;48.734;9.340;2024-02-15T11:23:23;4.70;;;1.87;;
485;SDS011;229;48.734;9.340;2024-02-15T11:25:51;4.70;;;1.90;;
485;SDS011;229;48.734;9.340;2024-02-15T11:31:02;5.37;;;1.80;;
485;SDS011;229;48.734;9.340;2024-02-15T11:33:31;6.93;;;2.10;;
485;SDS011;229;48.734;9.340;2024-02-15T11:36:03;5.40;;;2.10;;
485;SDS011;229;48.734;9.340;2024-02-15T11:38:31;4.73;;;2.30;;
485;SDS011;229;48.734;9.340;2024-02-15T11:40:59;2.80;;;1.87;;
485;SDS011;229;48.734;9.340;2024-02-15T11:43:46;3.60;;;1.80;;
485;SDS011;229;48.734;9.340;2024-02-15T11:46:15;2.47;;;1.63;;
485;SDS011;229;48.734;9.340;2024-02-15T11:48:44;4.17;;;2.60;;
485;SDS011;229;48.734;9.340;2024-02-15T11:51:24;2.90;;;2.10;;
485;SDS011;229;48.734;9.340;2024-02-15T11:53:58;3.23;;;1.70;;
485;SDS011;229;48.734;9.340;2024-02-15T11:56:25;3.97;;;1.80;;
485;SDS011;229;48.734;9.340;2024-02-15T11:59:01;3.70;;;1.53;;
485;SDS011;229;48.734;9.340;2024-02-15T12:01:31;4.20;;;2.10;;
485;SDS011;229;48.734;9.340;2024-02-15T12:04:17;5.40;;;1.93;;
485;SDS011;229;48.734;9.340;2024-02-15T12:07:02;8.50;;;2.40;;
485;SDS011;229;48.734;9.340;2024-02-15T12:09:48;2.67;;;1.70;;
485;SDS011;229;48.734;9.340;2024-02-15T12:12:32;7.63;;;3.70;;
485;SDS011;229;48.734;9.340;2024-02-15T12:15:17;12.03;;;2.27;;
485;SDS011;229;48.734;9.340;2024-02-15T12:18:14;7.93;;;1.83;;
485;SDS011;229;48.734;9.340;2024-02-15T12:21:00;4.40;;;2.53;;
485;SDS011;229;48.734;9.340;2024-02-15T12:23:29;8.27;;;4.00;;
485;SDS011;229;48.734;9.340;2024-02-15T12:25:58;8.80;;;4.40;;
485;SDS011;229;48.734;9.340;2024-02-15T12:28:26;5.53;;;2.30;;
485;SDS011;229;48.734;9.340;2024-02-15T12:30:54;6.43;;;2.60;;
485;SDS011;229;48.734;9.340;2024-02-15T12:33:22;4.43;;;1.97;;
485;SDS011;229;48.734;9.340;2024-02-15T12:35:49;5.30;;;3.43;;
485;SDS011;229;48.734;9.340;2024-02-15T12:38:18;6.60;;;2.13;;
485;SDS011;229;48.734;9.340;2024-02-15T12:40:46;2.50;;;1.83;;
485;SDS011;229;48.734;9.340;2024-02-15T12:43:13;6.27;;;3.00;;
485;SDS011;229;48.734;9.340;2024-02-15T12:45:41;3.70;;;2.10;;
485;SDS011;229;48.734;9.340;2024-02-15T12:48:08;3.40;;;2.07;;
485;SDS011;229;48.734;9.340;2024-02-15T12:50:36;3.40;;;1.90;;
485;SDS011;229;48.734;9.340;2024-02-15T12:53:04;5.00;;;2.20;;
485;SDS011;229;48.734;9.340;2024-02-15T12:55:34;7.30;;;1.90;;
485;SDS011;229;48.734;9.340;2024-02-15T12:58:02;3.40;;;1.80;;
485;SDS011;229;48.734;9.340;2024-02-15T13:00:33;4.73;;;2.90;;
485;SDS011;229;48.734;9.340;2024-02-15T13:03:04;5.43;;;2.60;;
485;SDS011;229;48.734;9.340;2024-02-15T13:05:34;8.23;;;5.30;;
485;SDS011;229;48.734;9.340;2024-02-15T13:08:02;5.30;;;2.37;;
485;SDS011;229;48.734;9.340;2024-02-15T13:10:36;4.33;;;2.37;;
485;SDS011;229;48.734;9.340;2024-02-15T13:13:04;5.13;;;2.00;;
485;SDS011;229;48.734;9.340;2024-02-15T13:15:31;7.20;;;4.57;;
485;SDS011;229;48.734;9.340;2024-02-15T13:17:59;4.50;;;2.47;;
485;SDS011;229;48.734;9.340;2024-02-15T13:20:29;3.13;;;1.90;;
485;SDS011;229;48.734;9.340;2024-02-15T13:22:57;4.90;;;2.50;;
485;SDS011;229;48.734;9.340;2024-02-15T13:25:27;4.63;;;1.97;;
485;SDS011;229;48.734;9.340;2024-02-15T13:27:56;6.03;;;2.93;;
485;SDS011;229;48.734;9.340;2024-02-15T13:30:23;7.10;;;3.30;;
485;SDS011;229;48.734;9.340;2024-02-15T13:32:52;3.50;;;2.00;;
485;SDS011;229;48.734;9.340;2024-02-15T13:35:20;4.07;;;2.53;;
485;SDS011;229;48.734;9.340;2024-02-15T13:37:49;6.43;;;2.87;;
485;SDS011;229;48.734;9.340;2024-02-15T13:40:19;10.57;;;4.37;;
485;SDS011;229;48.734;9.340;2024-02-15T13:42:49;9.20;;;2.80;;
485;SDS011;229;48.734;9.340;2024-02-15T13:45:19;9.37;;;2.73;;
485;SDS011;229;48.734;9.340;2024-02-15T13:47:47;3.00;;;2.43;;
485;SDS011;229;48.734;9.340;2024-02-15T13:50:15;5.33;;;2.83;;
485;SDS011;229;48.734;9.340;2024-02-15T13:52:43;5.33;;;2.53;;
485;SDS011;229;48.734;9.340;2024-02-15T13:55:11;9.20;;;2.90;;
485;SDS011;229;48.734;9.340;2024-02-15T13:57:39;4.03;;;2.43;;
485;SDS011;229;48.734;9.340;2024-02-15T14:00:07;4.60;;;2.37;;
485;SDS011;229;48.734;9.340;2024-02-15T14:02:39;7.53;;;2.17;;
485;SDS011;229;48.734;9.340;2024-02-15T14:05:08;5.40;;;1.90;;
485;SDS011;229;48.734;9.340;2024-02-15T14:07:36;4.30;;;1.73;;
485;SDS011;229;48.734;9.340;2024-02-15T14:10:04;5.80;;;2.30;;
485;SDS011;229;48.734;9.340;2024-02-15T14:12:31;3.20;;;1.93;;
485;SDS011;229;48.734;9.340;2024-02-15T14:14:58;3.83;;;1.97;;
485;SDS011;229;48.734;9.340;2024-02-15T14:17:25;5.47;;;2.17;;
485;SDS011;229;48.734;9.340;2024-02-15T14:19:55;10.00;;;2.20;;
485;SDS011;229;48.734;9.340;2024-02-15T14:22:22;12.80;;;6.20;;
485;SDS011;229;48.734;9.340;2024-02-15T14:24:53;4.17;;;3.30;;
485;SDS011;229;48.734;9.340;2024-02-15T14:27:20;8.30;;;3.43;;
485;SDS011;229;48.734;9.340;2024-02-15T14:29:47;5.00;;;2.10;;
485;SDS011;229;48.734;9.340;2024-02-15T14:32:28;3.10;;;2.30;;
485;SDS011;229;48.734;9.340;2024-02-15T14:35:14;7.60;;;4.27;;
485;SDS011;229;48.734;9.340;2024-02-15T14:37:42;8.50;;;2.70;;
485;SDS011;229;48.734;9.340;2024-02-15T14:40:10;4.00;;;3.30;;
485;SDS011;229;48.734;9.340;2024-02-15T14:42:39;10.90;;;6.97;;
485;SDS011;229;48.734;9.340;2024-02-15T14:45:07;16.10;;;8.27;;
485;SDS011;229;48.734;9.340;2024-02-15T14:47:34;11.10;;;5.93;;
485;SDS011;229;48.734;9.340;2024-02-15T14:50:01;10.33;;;5.03;;
485;SDS011;229;48.734;9.340;2024-02-15T14:52:30;10.63;;;5.90;;
485;SDS011;229;48.734;9.340;2024-02-15T14:54:57;10.40;;;5.20;;
485;SDS011;229;48.734;9.340;2024-02-15T14:57:24;9.07;;;4.30;;
485;SDS011;229;48.734;9.340;2024-02-15T14:59:51;13.10;;;3.40;;
485;SDS011;229;48.734;9.340;2024-02-15T15:02:18;3.43;;;2.17;;
485;SDS011;229;48.734;9.340;2024-02-15T15:04:46;5.03;;;2.23;;
485;SDS011;229;48.734;9.340;2024-02-15T15:07:45;4.60;;;2.20;;
485;SDS011;229;48.734;9.340;2024-02-15T15:10:30;3.53;;;1.77;;
485;SDS011;229;48.734;9.340;2024-02-15T15:13:15;6.00;;;2.60;;
485;SDS011;229;48.734;9.340;2024-02-15T15:15:44;7.43;;;4.43;;
485;SDS011;229;48.734;9.340;2024-02-15T15:18:12;6.20;;;2.67;;
485;SDS011;229;48.734;9.340;2024-02-15T15:20:39;3.40;;;2.20;;
485;SDS011;229;48.734;9.340;2024-02-15T15:23:08;5.50;;;2.40;;
485;SDS011;229;48.734;9.340;2024-02-15T15:25:35;4.53;;;2.20;;
485;SDS011;229;48.734;9.340;2024-02-15T15:28:03;4.80;;;2.00;;
485;SDS011;229;48.734;9.340;2024-02-15T15:30:30;3.47;;;1.90;;
485;SDS011;229;48.734;9.340;2024-02-15T15:32:57;3.97;;;2.17;;
485;SDS011;229;48.734;9.340;2024-02-15T15:35:25;5.97;;;2.40;;
485;SDS011;229;48.734;9.340;2024-02-15T15:37:54;5.10;;;2.80;;
485;SDS011;229;48.734;9.340;2024-02-15T15:40:23;10.50;;;4.53;;
485;SDS011;229;48.734;9.340;2024-02-15T15:42:51;3.63;;;2.53;;
485;SDS011;229;48.734;9.340;2024-02-15T15:45:19;6.90;;;3.20;;
485;SDS011;229;48.734;9.340;2024-02-15T15:47:48;4.50;;;2.30;;
485;SDS011;229;48.734;9.340;2024-02-15T15:50:15;4.77;;;3.20;;
485;SDS011;229;48.734;9.340;2024-02-15T15:52:42;8.20;;;3.77;;
485;SDS011;229;48.734;9.340;2024-02-15T15:55:10;7.63;;;4.90;;
485;SDS011;229;48.734;9.340;2024-02-15T15:57:39;8.93;;;4.27;;
485;SDS011;229;48.734;9.340;2024-02-15T16:00:07;6.63;;;4.50;;